Time;durP1;ratioP1;P1;durP2;ratioP2;P2;SDS_P1;SDS_P2;PMS_P1;PMS_P2;Temp;Humidity;BMP_temperature;BMP_pressure;BME280_temperature;BME280_humidity;BME280_pressure;Samples;Min_cycle;Max_cycle;Signal;HPM_P1;HPM_P2
2022/04/28 00:01:52;;;;;;;0.00;0.00;;;4.80;99.90;;;;;;5099194;28;20060;-78
2022/04/28 00:04:18;;;;;;;0.00;0.00;;;4.80;99.90;;;;;;5098646;28;20043;-78
2022/04/28 00:06:44;;;;;;;0.10;0.10;;;4.80;99.90;;;;;;5115937;28;20383;-78
2022/04/28 00:09:10;;;;;;;0.38;0.03;;;4.80;99.90;;;;;;5115540;28;20127;-78
2022/04/28 00:11:35;;;;;;;0.00;0.00;;;4.80;99.90;;;;;;5115679;28;20411;-79
2022/04/28 00:14:01;;;;;;;0.00;0.00;;;4.70;99.90;;;;;;5115847;28;20571;-78
2022/04/28 00:16:27;;;;;;;0.55;0.05;;;4.70;99.90;;;;;;5098325;28;20083;-78
2022/04/28 00:18:53;;;;;;;0.00;0.00;;;4.60;99.90;;;;;;5115266;28;20051;-79
2022/04/28 00:21:19;;;;;;;0.28;0.00;;;4.60;99.90;;;;;;5115351;28;20043;-79
2022/04/28 00:23:45;;;;;;;0.00;0.00;;;4.60;99.90;;;;;;5115480;28;20096;-78
2022/04/28 00:26:11;;;;;;;0.00;0.00;;;4.50;99.90;;;;;;5116162;28;20120;-79
2022/04/28 00:28:36;;;;;;;0.00;0.00;;;4.50;99.90;;;;;;5115138;28;20122;-78
2022/04/28 00:31:02;;;;;;;0.03;0.00;;;4.50;99.90;;;;;;5115395;28;20376;-79
2022/04/28 00:33:28;;;;;;;0.00;0.00;;;4.60;99.90;;;;;;5098228;28;20637;-78
2022/04/28 00:35:54;;;;;;;0.00;0.00;;;4.50;99.90;;;;;;5115092;28;20044;-79
2022/04/28 00:38:20;;;;;;;1.42;0.35;;;4.50;99.90;;;;;;5115052;28;20398;-78
2022/04/28 00:40:46;;;;;;;0.00;0.00;;;4.60;99.90;;;;;;5115261;28;20048;-78
2022/04/28 00:43:23;;;;;;;0.00;0.00;;;4.40;99.90;;;;;;5098731;28;20055;-79
2022/04/28 00:45:50;;;;;;;0.00;0.00;;;4.40;99.90;;;;;;5115306;28;20048;-79
2022/04/28 00:51:04;;;;;;;1.05;0.32;;;4.20;99.90;;;;;;5115206;28;20048;-79
2022/04/28 00:53:32;;;;;;;0.00;0.00;;;4.20;99.90;;;;;;5113056;28;20048;-78
2022/04/28 00:55:59;;;;;;;4.22;0.45;;;4.20;99.90;;;;;;5113125;28;20089;-78
2022/04/28 00:58:25;;;;;;;0.00;0.00;;;4.10;99.90;;;;;;5114438;28;20052;-79
2022/04/28 01:00:54;;;;;;;0.00;0.00;;;4.10;99.90;;;;;;5097944;28;20095;-79
2022/04/28 01:03:20;;;;;;;0.13;0.13;;;4.10;99.90;;;;;;5097732;28;20089;-79
2022/04/28 01:05:49;;;;;;;0.00;0.00;;;4.10;99.90;;;;;;5097656;28;20086;-78
2022/04/28 01:08:15;;;;;;;0.80;0.22;;;4.10;99.90;;;;;;5097688;28;20051;-79
2022/04/28 01:10:41;;;;;;;0.05;0.05;;;4.10;99.90;;;;;;5113653;28;20520;-78
2022/04/28 01:13:07;;;;;;;0.08;0.08;;;4.10;99.90;;;;;;5097390;28;20039;-79
2022/04/28 01:15:43;;;;;;;0.00;0.00;;;4.00;99.90;;;;;;5097094;28;20051;-78
2022/04/28 01:18:09;;;;;;;0.00;0.00;;;4.00;99.90;;;;;;5114559;28;20039;-78
2022/04/28 01:20:35;;;;;;;0.00;0.00;;;4.10;99.90;;;;;;5114986;28;20044;-78
2022/04/28 01:23:01;;;;;;;0.03;0.03;;;4.00;99.90;;;;;;5114790;28;20487;-78
2022/04/28 01:25:26;;;;;;;0.00;0.00;;;4.10;99.90;;;;;;5114306;28;20051;-79
2022/04/28 01:27:52;;;;;;;0.00;0.00;;;3.90;99.90;;;;;;5097352;28;20146;-78
2022/04/28 01:30:18;;;;;;;0.08;0.00;;;3.90;99.90;;;;;;5097133;28;20440;-78
2022/04/28 01:32:44;;;;;;;0.00;0.00;;;4.10;99.90;;;;;;5113742;28;20050;-78
2022/04/28 01:35:12;;;;;;;0.00;0.00;;;3.90;99.90;;;;;;5097027;28;20078;-79
2022/04/28 01:37:38;;;;;;;0.00;0.00;;;3.80;99.90;;;;;;5097038;28;20043;-78
2022/04/28 01:40:08;;;;;;;1.27;0.85;;;3.80;99.90;;;;;;5114109;28;20566;-79
2022/04/28 01:42:34;;;;;;;0.03;0.03;;;3.80;99.90;;;;;;5097107;28;20054;-79
2022/04/28 01:45:00;;;;;;;0.10;0.10;;;3.90;99.90;;;;;;5096859;28;20039;-78
2022/04/28 01:47:25;;;;;;;0.00;0.00;;;3.90;99.90;;;;;;5096872;28;20064;-78
2022/04/28 01:49:51;;;;;;;0.25;0.20;;;3.90;99.90;;;;;;5096894;28;20043;-78
2022/04/28 01:55:01;;;;;;;0.90;0.28;;;3.70;99.90;;;;;;5113795;28;20083;-79
2022/04/28 01:57:29;;;;;;;0.00;0.00;;;3.70;99.90;;;;;;5113547;28;20097;-79
2022/04/28 01:59:57;;;;;;;0.00;0.00;;;3.70;99.90;;;;;;5096719;28;20509;-79
2022/04/28 02:02:23;;;;;;;0.47;0.20;;;3.70;99.90;;;;;;5113605;28;20142;-79
2022/04/28 02:04:49;;;;;;;0.00;0.00;;;3.70;99.90;;;;;;5113616;28;20083;-79
2022/04/28 02:07:15;;;;;;;0.90;0.77;;;3.80;99.90;;;;;;5096589;28;20039;-78
2022/04/28 02:09:45;;;;;;;0.00;0.00;;;3.90;99.90;;;;;;5096344;28;20040;-79
2022/04/28 02:12:13;;;;;;;0.00;0.00;;;3.70;99.90;;;;;;5113549;28;20056;-79
2022/04/28 02:14:40;;;;;;;0.00;0.00;;;3.60;99.90;;;;;;5095949;28;20050;-79
2022/04/28 02:17:06;;;;;;;0.00;0.00;;;3.60;99.90;;;;;;5113166;28;20105;-79
2022/04/28 02:19:32;;;;;;;0.00;0.00;;;3.60;99.90;;;;;;5096422;28;20066;-78
2022/04/28 02:21:57;;;;;;;0.00;0.00;;;3.50;99.90;;;;;;5112015;28;20043;-78
2022/04/28 02:24:23;;;;;;;0.00;0.00;;;3.50;99.90;;;;;;5113317;28;20130;-79
2022/04/28 02:26:49;;;;;;;0.00;0.00;;;3.50;99.90;;;;;;5113258;28;20047;-79
2022/04/28 02:29:16;;;;;;;0.00;0.00;;;3.50;99.90;;;;;;5096324;28;20398;-79
2022/04/28 02:31:41;;;;;;;0.00;0.00;;;3.40;99.90;;;;;;5113418;28;20040;-78
2022/04/28 02:34:07;;;;;;;0.00;0.00;;;3.40;99.90;;;;;;5113391;28;20046;-78
2022/04/28 02:36:33;;;;;;;0.57;0.00;;;3.40;99.90;;;;;;5113432;28;20044;-78
2022/04/28 02:38:58;;;;;;;0.00;0.00;;;3.40;99.90;;;;;;5112999;28;20472;-78
2022/04/28 02:41:24;;;;;;;0.00;0.00;;;3.40;99.90;;;;;;5113192;28;20710;-78
2022/04/28 02:43:51;;;;;;;0.00;0.00;;;3.40;99.90;;;;;;5112960;28;20044;-78
2022/04/28 02:46:18;;;;;;;0.22;0.10;;;3.50;99.90;;;;;;5096229;28;20047;-78
2022/04/28 02:48:44;;;;;;;0.00;0.00;;;3.40;99.90;;;;;;5113129;28;20039;-78
2022/04/28 02:51:13;;;;;;;0.00;0.00;;;3.40;99.90;;;;;;5096038;28;20495;-79
2022/04/28 02:53:39;;;;;;;0.00;0.00;;;3.40;99.90;;;;;;5096121;28;20056;-78
2022/04/28 02:56:05;;;;;;;0.00;0.00;;;3.30;99.90;;;;;;5112476;28;20047;-78
2022/04/28 02:58:33;;;;;;;0.00;0.00;;;3.30;99.90;;;;;;5112351;28;20056;-78
2022/04/28 03:01:03;;;;;;;0.20;0.20;;;3.30;99.90;;;;;;5113404;28;20051;-79
2022/04/28 03:03:29;;;;;;;0.00;0.00;;;3.20;99.90;;;;;;5113164;28;20134;-79
2022/04/28 03:11:23;;;;;;;0.00;0.00;;;3.20;99.90;;;;;;5112884;28;20102;-79
2022/04/28 03:13:50;;;;;;;0.00;0.00;;;3.20;99.90;;;;;;5112704;28;20052;-78
2022/04/28 03:16:16;;;;;;;0.00;0.00;;;3.20;99.90;;;;;;5112588;28;20046;-78
2022/04/28 03:18:42;;;;;;;0.00;0.00;;;3.10;99.90;;;;;;5112614;28;20036;-78
2022/04/28 03:21:12;;;;;;;0.00;0.00;;;3.00;99.90;;;;;;5096232;28;20052;-78
2022/04/28 03:23:37;;;;;;;0.00;0.00;;;3.00;99.90;;;;;;5112642;28;20051;-78
2022/04/28 03:26:04;;;;;;;1.10;0.28;;;3.00;99.90;;;;;;5112903;28;20052;-79
2022/04/28 03:28:34;;;;;;;0.00;0.00;;;3.00;99.90;;;;;;5112710;28;20130;-78
2022/04/28 03:31:01;;;;;;;0.10;0.10;;;3.00;99.90;;;;;;5095461;28;20056;-78
2022/04/28 03:33:27;;;;;;;0.00;0.00;;;3.00;99.90;;;;;;5112614;28;20104;-78
2022/04/28 03:35:53;;;;;;;0.00;0.00;;;3.00;99.90;;;;;;5116436;28;20437;-78
2022/04/28 03:38:19;;;;;;;0.00;0.00;;;3.00;99.90;;;;;;5116470;28;20047;-78
2022/04/28 03:40:45;;;;;;;0.00;0.00;;;2.90;99.90;;;;;;5116286;28;20047;-78
2022/04/28 03:43:11;;;;;;;0.10;0.00;;;2.90;99.90;;;;;;5116398;28;20039;-79
2022/04/28 03:45:37;;;;;;;0.00;0.00;;;2.90;99.90;;;;;;5116295;28;20089;-78
2022/04/28 03:48:03;;;;;;;0.08;0.08;;;2.80;99.90;;;;;;5098889;28;20115;-78
2022/04/28 03:50:30;;;;;;;0.17;0.17;;;2.80;99.90;;;;;;5116189;28;20126;-79
2022/04/28 03:52:59;;;;;;;0.10;0.05;;;2.80;99.90;;;;;;5116197;28;20118;-79
2022/04/28 03:55:25;;;;;;;0.00;0.00;;;2.80;99.90;;;;;;5098957;28;20122;-79
2022/04/28 03:57:51;;;;;;;0.03;0.00;;;2.80;99.90;;;;;;5115497;28;20495;-78
2022/04/28 04:00:17;;;;;;;0.00;0.00;;;2.80;99.90;;;;;;5098799;28;20051;-78
2022/04/28 04:02:43;;;;;;;0.00;0.00;;;2.80;99.90;;;;;;5098803;28;20047;-78
2022/04/28 04:05:09;;;;;;;0.00;0.00;;;2.80;99.90;;;;;;5116469;28;20040;-79
2022/04/28 04:07:38;;;;;;;0.00;0.00;;;2.70;99.90;;;;;;5098899;28;20082;-79
2022/04/28 04:10:05;;;;;;;0.10;0.10;;;2.80;99.90;;;;;;5115810;28;20047;-79
2022/04/28 04:12:30;;;;;;;0.60;0.60;;;2.80;99.90;;;;;;5098681;28;20059;-79
2022/04/28 04:14:57;;;;;;;0.00;0.00;;;2.80;99.90;;;;;;5098491;28;20039;-78
2022/04/28 04:17:22;;;;;;;0.20;0.20;;;2.80;99.90;;;;;;5098908;28;20062;-79
2022/04/28 04:19:48;;;;;;;0.85;0.20;;;2.90;99.90;;;;;;5115628;28;20039;-79
2022/04/28 04:22:14;;;;;;;0.00;0.00;;;2.90;99.90;;;;;;5115441;28;20078;-78
2022/04/28 04:24:43;;;;;;;0.00;0.00;;;3.00;99.90;;;;;;5098572;28;20443;-79
2022/04/28 04:27:09;;;;;;;0.00;0.00;;;3.00;99.90;;;;;;5115694;28;20047;-78
2022/04/28 04:29:38;;;;;;;0.20;0.15;;;3.10;99.90;;;;;;5115345;28;20115;-79
2022/04/28 04:32:20;;;;;;;0.00;0.00;;;3.20;99.90;;;;;;5099045;28;20525;-79
2022/04/28 04:34:47;;;;;;;0.00;0.00;;;3.20;99.90;;;;;;5098068;28;20048;-79
2022/04/28 04:37:14;;;;;;;0.00;0.00;;;3.30;99.90;;;;;;5098352;28;20055;-79
2022/04/28 04:39:40;;;;;;;0.10;0.00;;;3.40;99.90;;;;;;5098257;28;20050;-78
2022/04/28 04:42:07;;;;;;;0.00;0.00;;;3.40;99.90;;;;;;5115167;28;20046;-78
2022/04/28 04:44:33;;;;;;;0.00;0.00;;;3.50;99.90;;;;;;5098091;28;20483;-79
2022/04/28 04:46:59;;;;;;;0.10;0.08;;;3.60;99.90;;;;;;5097928;28;20054;-79
2022/04/28 04:49:25;;;;;;;1.02;0.10;;;3.60;99.90;;;;;;5098228;28;20135;-79
2022/04/28 04:51:50;;;;;;;0.00;0.00;;;4.00;99.90;;;;;;5098055;28;20145;-79
2022/04/28 04:54:16;;;;;;;0.05;0.00;;;3.90;99.90;;;;;;5098001;28;20044;-79
2022/04/28 04:56:42;;;;;;;0.00;0.00;;;3.90;99.90;;;;;;5114807;28;20059;-79
2022/04/28 04:59:08;;;;;;;0.20;0.20;;;4.00;99.90;;;;;;5115289;28;20399;-80
2022/04/28 05:01:34;;;;;;;0.03;0.00;;;4.10;99.90;;;;;;5114855;28;20399;-78
2022/04/28 05:03:59;;;;;;;0.00;0.00;;;4.10;99.90;;;;;;5114777;28;20047;-79
2022/04/28 05:06:25;;;;;;;0.00;0.00;;;4.20;99.90;;;;;;5097692;28;20078;-78
2022/04/28 05:08:51;;;;;;;0.00;0.00;;;4.30;99.90;;;;;;5097943;28;20488;-79
2022/04/28 05:11:17;;;;;;;0.00;0.00;;;4.40;99.90;;;;;;5114780;28;20074;-79
2022/04/28 05:13:43;;;;;;;0.00;0.00;;;4.50;99.90;;;;;;5097577;28;20067;-79
2022/04/28 05:16:08;;;;;;;0.10;0.10;;;4.60;99.90;;;;;;5114092;28;20096;-78
2022/04/28 05:18:34;;;;;;;0.00;0.00;;;4.70;99.90;;;;;;5097771;28;20075;-79
2022/04/28 05:21:00;;;;;;;0.77;0.65;;;4.80;99.90;;;;;;5114666;28;20387;-79
2022/04/28 05:23:26;;;;;;;0.43;0.10;;;4.80;99.90;;;;;;5114457;28;20100;-79
2022/04/28 05:25:51;;;;;;;0.05;0.00;;;4.90;99.90;;;;;;5114284;28;20058;-79
2022/04/28 05:28:17;;;;;;;0.32;0.20;;;4.90;99.90;;;;;;5097415;28;20097;-78
2022/04/28 05:30:43;;;;;;;0.00;0.00;;;5.00;99.90;;;;;;5097457;28;20131;-78
2022/04/28 05:33:08;;;;;;;0.00;0.00;;;5.00;99.90;;;;;;5114343;28;20043;-79
2022/04/28 05:35:40;;;;;;;0.00;0.00;;;5.10;99.90;;;;;;5113697;28;20039;-78
2022/04/28 05:38:08;;;;;;;0.20;0.20;;;5.10;99.90;;;;;;5113953;28;20130;-78
2022/04/28 05:40:33;;;;;;;0.10;0.10;;;5.20;99.90;;;;;;5113786;28;20131;-79
2022/04/28 05:45:46;;;;;;;0.00;0.00;;;5.30;99.90;;;;;;5114391;28;20155;-79
2022/04/28 05:48:16;;;;;;;0.00;0.00;;;5.40;99.90;;;;;;5114161;28;20132;-79
2022/04/28 05:50:42;;;;;;;0.00;0.00;;;5.50;99.90;;;;;;5113848;28;20612;-78
2022/04/28 05:53:09;;;;;;;0.00;0.00;;;5.70;99.90;;;;;;5114056;28;20039;-79
2022/04/28 05:55:35;;;;;;;0.08;0.08;;;5.70;99.90;;;;;;5097023;28;20050;-78
2022/04/28 05:58:01;;;;;;;0.00;0.00;;;5.80;99.90;;;;;;5112503;28;20126;-79
2022/04/28 06:00:28;;;;;;;0.00;0.00;;;5.90;99.90;;;;;;5096753;28;20136;-79
2022/04/28 06:02:54;;;;;;;0.20;0.20;;;6.10;99.90;;;;;;5096454;28;20114;-79
2022/04/28 06:05:20;;;;;;;0.00;0.00;;;6.10;99.90;;;;;;5096616;28;20048;-79
2022/04/28 06:07:46;;;;;;;0.00;0.00;;;6.20;99.90;;;;;;5113454;28;20062;-78
2022/04/28 06:10:13;;;;;;;0.00;0.00;;;6.30;99.90;;;;;;5114133;28;20043;-79
2022/04/28 06:12:39;;;;;;;0.00;0.00;;;6.40;99.90;;;;;;5113473;28;20442;-79
2022/04/28 06:15:05;;;;;;;0.10;0.00;;;6.50;99.90;;;;;;5096370;28;20036;-79
2022/04/28 06:17:31;;;;;;;0.00;0.00;;;6.60;99.90;;;;;;5096347;28;20131;-80
2022/04/28 06:19:56;;;;;;;0.15;0.10;;;6.60;99.90;;;;;;5112974;28;20047;-79
2022/04/28 06:22:22;;;;;;;0.00;0.00;;;6.70;99.90;;;;;;5096463;28;20055;-79
2022/04/28 06:24:52;;;;;;;0.00;0.00;;;6.80;99.90;;;;;;5113455;28;20051;-79
2022/04/28 06:27:18;;;;;;;0.03;0.03;;;6.80;99.90;;;;;;5096279;28;20043;-79
2022/04/28 06:29:44;;;;;;;0.00;0.00;;;6.90;99.90;;;;;;5112802;28;20062;-79
2022/04/28 06:32:10;;;;;;;0.00;0.00;;;6.90;99.90;;;;;;5112645;28;20063;-79
2022/04/28 06:34:36;;;;;;;0.00;0.00;;;6.90;99.90;;;;;;5112985;28;20047;-79
2022/04/28 06:37:03;;;;;;;0.00;0.00;;;7.00;99.90;;;;;;5113195;28;20051;-78
2022/04/28 06:39:29;;;;;;;0.00;0.00;;;7.10;99.90;;;;;;5112453;28;20380;-79
2022/04/28 06:41:55;;;;;;;0.00;0.00;;;7.10;99.90;;;;;;5113086;28;20046;-79
2022/04/28 06:44:20;;;;;;;0.00;0.00;;;7.20;99.90;;;;;;5112944;28;20040;-78
2022/04/28 06:46:46;;;;;;;0.00;0.00;;;7.20;99.90;;;;;;5096243;28;20098;-79
2022/04/28 06:49:11;;;;;;;0.00;0.00;;;7.30;99.90;;;;;;5112993;28;20487;-78
2022/04/28 06:51:37;;;;;;;5.65;1.45;;;7.40;99.90;;;;;;5113666;28;20046;-79
2022/04/28 06:54:03;;;;;;;0.00;0.00;;;7.50;99.90;;;;;;5110251;28;20428;-79
2022/04/28 06:56:29;;;;;;;0.00;0.00;;;7.50;99.90;;;;;;5094663;28;20090;-79
2022/04/28 06:58:55;;;;;;;0.20;0.20;;;7.50;99.90;;;;;;5092904;28;20449;-79
2022/04/28 07:01:20;;;;;;;0.00;0.00;;;7.60;99.90;;;;;;5110693;28;20073;-79
2022/04/28 07:03:46;;;;;;;0.00;0.00;;;7.70;99.90;;;;;;5110851;28;20086;-78
2022/04/28 07:06:12;;;;;;;0.00;0.00;;;7.80;99.90;;;;;;5093634;28;20112;-78
2022/04/28 07:08:37;;;;;;;0.00;0.00;;;7.80;99.90;;;;;;5111583;28;20035;-78
2022/04/28 07:11:03;;;;;;;0.00;0.00;;;7.90;99.90;;;;;;5115447;28;20051;-78
2022/04/28 07:13:29;;;;;;;0.00;0.00;;;8.00;99.90;;;;;;5114633;28;20381;-78
2022/04/28 07:15:55;;;;;;;0.20;0.20;;;8.10;99.90;;;;;;5097340;28;20488;-80
2022/04/28 07:18:20;;;;;;;2.60;0.20;;;8.10;99.90;;;;;;5114558;28;20214;-79
2022/04/28 07:20:46;;;;;;;0.10;0.10;;;8.20;99.90;;;;;;5114979;28;20052;-78
2022/04/28 07:23:12;;;;;;;0.03;0.00;;;8.20;99.90;;;;;;5097582;28;20399;-79
2022/04/28 07:25:39;;;;;;;0.10;0.00;;;8.30;99.90;;;;;;5114313;28;20060;-78
2022/04/28 07:28:05;;;;;;;0.00;0.00;;;8.40;99.90;;;;;;5114309;28;20102;-79
2022/04/28 07:30:31;;;;;;;0.00;0.00;;;8.50;99.90;;;;;;5097477;28;20407;-79
2022/04/28 07:32:57;;;;;;;0.20;0.10;;;8.60;99.90;;;;;;5114374;28;20056;-79
2022/04/28 07:35:26;;;;;;;0.20;0.00;;;8.80;99.90;;;;;;5114406;28;20050;-78
2022/04/28 07:37:52;;;;;;;0.00;0.00;;;8.90;99.90;;;;;;5097493;28;20054;-78
2022/04/28 07:40:19;;;;;;;0.00;0.00;;;9.00;99.90;;;;;;5097695;28;20046;-79
2022/04/28 07:42:45;;;;;;;0.00;0.00;;;9.10;99.90;;;;;;5097599;28;20051;-79
2022/04/28 07:45:11;;;;;;;0.00;0.00;;;9.40;99.90;;;;;;5113967;28;20453;-79
2022/04/28 07:47:37;;;;;;;0.00;0.00;;;9.40;99.90;;;;;;5115086;28;20079;-79
2022/04/28 07:50:03;;;;;;;0.10;0.10;;;9.50;99.90;;;;;;5114163;28;20036;-79
2022/04/28 07:52:30;;;;;;;0.38;0.08;;;9.60;99.90;;;;;;5114273;28;20376;-79
2022/04/28 07:54:56;;;;;;;0.05;0.05;;;9.70;99.90;;;;;;5096727;28;20139;-79
2022/04/28 07:57:23;;;;;;;0.00;0.00;;;9.80;99.90;;;;;;5113840;28;20055;-78
2022/04/28 07:59:50;;;;;;;0.45;0.45;;;10.00;99.90;;;;;;5096563;28;20107;-79
2022/04/28 08:02:16;;;;;;;0.00;0.00;;;10.20;99.90;;;;;;5114026;28;20039;-80
2022/04/28 08:04:42;;;;;;;0.28;0.20;;;10.40;99.90;;;;;;5096661;28;20092;-79
2022/04/28 08:07:08;;;;;;;0.65;0.00;;;10.50;99.90;;;;;;5097242;28;20137;-80
2022/04/28 08:09:34;;;;;;;0.20;0.20;;;10.70;99.90;;;;;;5097218;28;20060;-79
2022/04/28 08:12:00;;;;;;;0.10;0.10;;;10.90;99.90;;;;;;5096945;28;20165;-80
2022/04/28 08:14:26;;;;;;;0.15;0.00;;;11.40;99.90;;;;;;5096976;28;20051;-79
2022/04/28 08:16:52;;;;;;;3.25;0.82;;;11.90;99.90;;;;;;5114116;28;20058;-79
2022/04/28 08:19:19;;;;;;;0.05;0.00;;;12.10;99.90;;;;;;5097871;28;20151;-79
2022/04/28 08:21:49;;;;;;;0.10;0.10;;;12.40;99.90;;;;;;5096879;28;20043;-79
2022/04/28 08:24:15;;;;;;;0.20;0.20;;;12.30;99.90;;;;;;5115524;28;20486;-79
2022/04/28 08:26:41;;;;;;;0.10;0.10;;;12.30;99.90;;;;;;5098842;28;20395;-79
2022/04/28 08:29:06;;;;;;;0.00;0.00;;;12.30;99.90;;;;;;5098929;28;20056;-79
2022/04/28 08:31:32;;;;;;;0.10;0.10;;;12.10;99.90;;;;;;5098489;28;20391;-79
2022/04/28 08:33:58;;;;;;;0.43;0.43;;;11.80;99.90;;;;;;5098255;28;20558;-79
2022/04/28 08:36:25;;;;;;;0.00;0.00;;;11.70;99.90;;;;;;5115564;28;20082;-78
2022/04/28 08:38:52;;;;;;;0.55;0.30;;;11.70;99.90;;;;;;5115337;28;20126;-79
2022/04/28 08:41:29;;;;;;;0.30;0.10;;;11.60;99.90;;;;;;5098441;28;20044;-79
2022/04/28 08:43:59;;;;;;;0.00;0.00;;;11.60;99.90;;;;;;5098592;28;20055;-79
2022/04/28 08:49:12;;;;;;;0.10;0.10;;;11.50;99.90;;;;;;5115481;28;20043;-79
2022/04/28 08:51:38;;;;;;;0.00;0.00;;;11.50;99.90;;;;;;5098212;28;20058;-80
2022/04/28 08:54:04;;;;;;;0.20;0.20;;;11.50;99.90;;;;;;5115173;28;20050;-80
2022/04/28 08:56:30;;;;;;;0.00;0.00;;;11.50;99.90;;;;;;5114846;28;20395;-79
2022/04/28 08:58:56;;;;;;;0.00;0.00;;;11.50;99.90;;;;;;5097627;28;20044;-79
2022/04/28 09:01:27;;;;;;;0.00;0.00;;;11.50;99.90;;;;;;5098124;28;20044;-79
2022/04/28 09:03:57;;;;;;;0.05;0.05;;;11.70;99.90;;;;;;5097758;28;20047;-79
2022/04/28 09:06:29;;;;;;;0.00;0.00;;;11.80;99.90;;;;;;5097936;28;20222;-79
2022/04/28 09:08:56;;;;;;;0.00;0.00;;;12.00;99.90;;;;;;5097777;28;20491;-79
2022/04/28 09:11:24;;;;;;;0.00;0.00;;;12.10;99.90;;;;;;5115255;28;20438;-79
2022/04/28 09:14:37;;;;;;;0.10;0.08;;;12.30;99.90;;;;;;5114817;28;20054;-79
2022/04/28 09:16:59;;;;;;;0.30;0.30;;;12.40;99.90;;;;;;5112353;28;20372;-80
2022/04/28 09:19:34;;;;;;;0.32;0.00;;;12.50;99.80;;;;;;5114248;28;20054;-80
2022/04/28 09:22:08;;;;;;;0.00;0.00;;;12.60;99.70;;;;;;5114318;28;20077;-79
2022/04/28 09:24:35;;;;;;;0.93;0.83;;;12.70;99.60;;;;;;5097958;28;20139;-80
2022/04/28 09:27:01;;;;;;;0.00;0.00;;;12.90;99.60;;;;;;5114464;28;20109;-79
2022/04/28 09:29:29;;;;;;;0.85;0.55;;;12.90;99.70;;;;;;5114245;28;20528;-80
2022/04/28 09:31:56;;;;;;;2.65;0.85;;;12.90;98.50;;;;;;5113654;28;20040;-79
2022/04/28 09:34:23;;;;;;;0.00;0.00;;;13.00;98.80;;;;;;5097246;28;20138;-80
2022/04/28 09:36:50;;;;;;;0.00;0.00;;;13.00;98.50;;;;;;5114317;28;20097;-79
2022/04/28 09:44:56;;;;;;;0.00;0.00;;;13.30;98.50;;;;;;5114608;28;20090;-79
2022/04/28 09:47:23;;;;;;;0.10;0.00;;;13.40;98.20;;;;;;5097198;28;20051;-80
2022/04/28 09:49:53;;;;;;;0.00;0.00;;;13.60;97.60;;;;;;5097188;28;20047;-80
2022/04/28 09:52:31;;;;;;;0.00;0.00;;;13.60;97.30;;;;;;5113968;28;20035;-79
2022/04/28 09:55:03;;;;;;;0.20;0.20;;;13.50;97.40;;;;;;5096204;28;20126;-80
2022/04/28 09:57:29;;;;;;;0.00;0.00;;;13.50;97.20;;;;;;5114064;28;20059;-80
2022/04/28 09:59:59;;;;;;;0.00;0.00;;;13.50;96.60;;;;;;5114209;28;20074;-80
2022/04/28 10:02:27;;;;;;;0.00;0.00;;;13.40;97.40;;;;;;5113749;28;20039;-80
2022/04/28 10:04:55;;;;;;;0.00;0.00;;;13.50;97.80;;;;;;5096906;28;20062;-80
2022/04/28 10:07:22;;;;;;;0.00;0.00;;;13.40;96.70;;;;;;5096790;28;20052;-80
2022/04/28 10:09:50;;;;;;;0.00;0.00;;;13.40;96.80;;;;;;5114176;28;20089;-79
2022/04/28 10:12:25;;;;;;;0.05;0.05;;;13.50;96.40;;;;;;5114060;28;20386;-80
2022/04/28 10:14:53;;;;;;;0.43;0.13;;;13.60;96.70;;;;;;5113786;28;20067;-80
2022/04/28 10:17:50;;;;;;;0.00;0.00;;;13.40;95.50;;;;;;5096410;28;20060;-80
2022/04/28 10:20:25;;;;;;;0.13;0.13;;;13.50;96.10;;;;;;5055406;28;20416;-80
2022/04/28 10:22:52;;;;;;;0.00;0.00;;;13.90;96.30;;;;;;5055102;28;20609;-80
2022/04/28 10:33:45;;;;;;;0.00;0.00;;;15.00;94.00;;;;;;5054978;28;20060;-80
2022/04/28 10:36:21;;;;;;;0.00;0.00;;;15.00;93.60;;;;;;5054724;28;20044;-80
2022/04/28 10:39:08;;;;;;;0.00;0.00;;;15.10;93.80;;;;;;5054898;28;20423;-79
2022/04/28 10:41:34;;;;;;;0.00;0.00;;;15.50;93.30;;;;;;5055118;28;20484;-79
2022/04/28 10:44:02;;;;;;;0.00;0.00;;;15.50;91.80;;;;;;5038014;28;20512;-79
2022/04/28 10:46:29;;;;;;;0.00;0.00;;;15.60;90.70;;;;;;5038023;28;20553;-79
2022/04/28 10:48:59;;;;;;;0.90;0.25;;;16.00;92.70;;;;;;5054784;28;20053;-79
2022/04/28 10:51:27;;;;;;;0.30;0.28;;;16.50;91.80;;;;;;5054797;28;20048;-79
2022/04/28 10:54:01;;;;;;;0.00;0.00;;;16.70;87.80;;;;;;5037714;28;20053;-80
2022/04/28 10:56:29;;;;;;;0.00;0.00;;;16.70;90.00;;;;;;5047065;28;20495;-80
2022/04/28 10:59:00;;;;;;;0.00;0.00;;;16.60;90.00;;;;;;5095379;28;20055;-79
2022/04/28 11:01:28;;;;;;;0.00;0.00;;;16.50;90.20;;;;;;5113298;28;20122;-79
2022/04/28 11:03:55;;;;;;;0.00;0.00;;;16.20;89.60;;;;;;5095960;28;20047;-79
2022/04/28 11:06:24;;;;;;;0.85;0.20;;;15.90;88.90;;;;;;5113396;28;20098;-80
2022/04/28 11:08:55;;;;;;;0.05;0.05;;;15.70;89.30;;;;;;5095979;28;20088;-79
2022/04/28 11:11:24;;;;;;;0.25;0.17;;;15.80;89.10;;;;;;5112527;28;20048;-80
2022/04/28 11:13:58;;;;;;;0.15;0.15;;;16.10;88.30;;;;;;5095781;28;20052;-80
2022/04/28 11:16:26;;;;;;;0.20;0.20;;;16.20;84.40;;;;;;5112497;28;20071;-80
2022/04/28 11:18:53;;;;;;;0.08;0.08;;;16.40;86.40;;;;;;5113223;28;20059;-80
2022/04/28 11:21:19;;;;;;;0.47;0.00;;;16.50;85.30;;;;;;5112909;28;20094;-80
2022/04/28 11:23:47;;;;;;;0.28;0.28;;;16.80;83.90;;;;;;5112346;28;20059;-80
2022/04/28 11:26:14;;;;;;;0.22;0.22;;;16.90;81.90;;;;;;5112677;28;20044;-80
2022/04/28 11:28:41;;;;;;;0.90;0.35;;;16.80;81.80;;;;;;5095711;28;20048;-80
2022/04/28 11:31:14;;;;;;;0.00;0.00;;;16.80;82.40;;;;;;5112570;28;20503;-80
2022/04/28 11:33:42;;;;;;;0.10;0.10;;;16.90;82.40;;;;;;5095748;28;20510;-80
2022/04/28 11:36:26;;;;;;;0.15;0.15;;;17.10;81.90;;;;;;5112671;28;20376;-80
2022/04/28 11:39:02;;;;;;;0.52;0.40;;;17.10;79.30;;;;;;5095501;28;20097;-80
2022/04/28 11:41:40;;;;;;;0.30;0.20;;;17.30;80.40;;;;;;5095808;28;20075;-80
2022/04/28 11:44:16;;;;;;;0.20;0.20;;;17.30;80.00;;;;;;5112594;28;20089;-80
2022/04/28 11:46:42;;;;;;;0.20;0.20;;;17.30;80.10;;;;;;5112774;28;20449;-80
2022/04/28 11:49:08;;;;;;;5.15;0.50;;;17.40;76.90;;;;;;5095218;28;20043;-80
2022/04/28 11:51:35;;;;;;;0.00;0.00;;;17.20;77.80;;;;;;5112257;28;20490;-80
2022/04/28 11:54:02;;;;;;;0.00;0.00;;;17.40;77.10;;;;;;5113015;28;20105;-80
2022/04/28 11:56:31;;;;;;;0.00;0.00;;;17.50;78.10;;;;;;5098273;28;20040;-80
2022/04/28 11:59:00;;;;;;;0.00;0.00;;;17.60;76.20;;;;;;5098914;28;20052;-80
2022/04/28 12:01:31;;;;;;;0.90;0.20;;;17.70;76.90;;;;;;5116038;28;20055;-80
2022/04/28 12:03:58;;;;;;;0.00;0.00;;;18.00;79.40;;;;;;5116813;28;20059;-80
2022/04/28 12:06:25;;;;;;;0.00;0.00;;;18.20;76.30;;;;;;5115785;28;20044;-81
2022/04/28 12:08:59;;;;;;;0.20;0.20;;;18.00;74.70;;;;;;5098957;28;20046;-80
2022/04/28 12:14:25;;;;;;;0.00;0.00;;;18.30;77.50;;;;;;5114122;28;20083;-81
2022/04/28 12:19:52;;;;;;;0.10;0.10;;;18.10;74.00;;;;;;5115825;28;20059;-81
2022/04/28 12:22:44;;;;;;;0.00;0.00;;;18.10;76.10;;;;;;5098511;28;20059;-80
2022/04/28 12:25:12;;;;;;;0.00;0.00;;;17.90;76.10;;;;;;5096650;28;20058;-81
2022/04/28 12:27:51;;;;;;;0.47;0.38;;;17.50;75.40;;;;;;5115618;28;20055;-80
2022/04/28 12:30:19;;;;;;;0.08;0.08;;;17.10;76.30;;;;;;5115817;28;20043;-80
2022/04/28 12:32:54;;;;;;;0.00;0.00;;;17.20;74.80;;;;;;5115433;28;20046;-81
2022/04/28 12:35:47;;;;;;;0.10;0.10;;;17.30;75.40;;;;;;5115379;28;20043;-81
2022/04/28 12:38:23;;;;;;;0.00;0.00;;;17.60;76.00;;;;;;5112669;28;20140;-81
2022/04/28 12:40:48;;;;;;;1.05;0.52;;;17.90;75.20;;;;;;5115237;28;20134;-80
2022/04/28 12:43:38;;;;;;;0.00;0.00;;;18.20;74.70;;;;;;5115207;28;20122;-81
2022/04/28 12:46:05;;;;;;;0.00;0.00;;;18.30;75.00;;;;;;5099029;28;20438;-80
2022/04/28 12:48:38;;;;;;;0.00;0.00;;;18.40;73.00;;;;;;5115182;28;20044;-80
2022/04/28 12:51:14;;;;;;;0.00;0.00;;;18.20;70.90;;;;;;5098043;28;20086;-80
2022/04/28 12:53:43;;;;;;;0.43;0.43;;;18.30;71.60;;;;;;5115037;28;20368;-80
2022/04/28 12:56:12;;;;;;;0.05;0.05;;;18.40;72.90;;;;;;5114810;28;20135;-80
2022/04/28 12:58:41;;;;;;;0.00;0.00;;;18.50;69.80;;;;;;5097614;28;20074;-81
2022/04/28 13:01:19;;;;;;;0.00;0.00;;;18.60;71.70;;;;;;5115139;28;20376;-80
2022/04/28 13:04:06;;;;;;;0.40;0.22;;;18.40;71.20;;;;;;5114865;28;20400;-81
2022/04/28 13:06:37;;;;;;;0.10;0.10;;;18.40;71.90;;;;;;5114966;28;20035;-81
2022/04/28 13:09:07;;;;;;;0.32;0.22;;;18.30;71.40;;;;;;5097591;28;20055;-81
2022/04/28 13:11:38;;;;;;;0.20;0.20;;;18.30;72.70;;;;;;5097756;28;20051;-80
2022/04/28 13:14:06;;;;;;;0.40;0.25;;;18.30;70.00;;;;;;5097762;28;20429;-80
2022/04/28 13:16:32;;;;;;;0.00;0.00;;;18.30;72.10;;;;;;5097467;28;20105;-80
2022/04/28 13:18:58;;;;;;;1.55;0.45;;;18.40;69.30;;;;;;5097470;28;20142;-81
2022/04/28 13:21:24;;;;;;;0.08;0.03;;;18.30;70.10;;;;;;5114558;28;20130;-80
2022/04/28 13:23:50;;;;;;;0.00;0.00;;;18.30;70.30;;;;;;5114658;28;20081;-80
2022/04/28 13:26:19;;;;;;;0.00;0.00;;;18.00;71.80;;;;;;5097486;28;20122;-81
2022/04/28 13:28:46;;;;;;;0.05;0.05;;;18.00;71.80;;;;;;5097319;28;20039;-80
2022/04/28 13:31:12;;;;;;;0.25;0.15;;;18.10;71.40;;;;;;5114190;28;20388;-80
2022/04/28 13:33:39;;;;;;;0.10;0.00;;;18.20;70.50;;;;;;5114938;28;20122;-80